createdAt,value
2023-05-01T00:01:54.064Z,52.02
2023-05-01T00:04:23.181Z,51.76
2023-05-01T00:06:52.428Z,52.18
2023-05-01T00:09:21.710Z,52.04
2023-05-01T00:11:50.768Z,52.15
2023-05-01T00:14:19.865Z,52.07
2023-05-01T00:16:49.092Z,52.18
2023-05-01T00:19:18.247Z,52.38
2023-05-01T00:21:47.588Z,52.43
2023-05-01T00:24:16.723Z,52.60
2023-05-01T00:26:45.888Z,52.43
2023-05-01T00:29:15.354Z,52.47
2023-05-01T00:31:44.859Z,52.52
2023-05-01T00:34:13.935Z,52.66
2023-05-01T00:36:43.263Z,52.93
2023-05-01T00:39:12.330Z,52.60
2023-05-01T00:41:41.330Z,52.52
2023-05-01T00:44:10.332Z,52.62
2023-05-01T00:46:39.380Z,53.18
2023-05-01T00:49:08.499Z,52.61
2023-05-01T00:51:37.509Z,53.12
2023-05-01T00:54:06.709Z,52.95
2023-05-01T00:56:35.777Z,53.10
2023-05-01T00:59:04.856Z,52.94
2023-05-01T01:01:34.357Z,52.97
2023-05-01T01:04:03.488Z,53.16
2023-05-01T01:06:39.093Z,53.06
2023-05-01T01:09:12.328Z,53.09
2023-05-01T01:11:45.670Z,53.31
2023-05-01T01:14:17.532Z,53.54
2023-05-01T01:16:53.565Z,53.55
2023-05-01T01:19:41.468Z,53.62
2023-05-01T01:22:12.171Z,53.71
2023-05-01T01:25:00.813Z,53.60
2023-05-01T01:27:39.866Z,53.81
2023-05-01T01:30:17.771Z,53.89
2023-05-01T01:33:06.562Z,53.97
2023-05-01T01:35:36.870Z,54.16
2023-05-01T01:38:09.495Z,54.20
2023-05-01T01:40:39.624Z,54.38
2023-05-01T01:43:10.552Z,54.42
2023-05-01T01:45:39.944Z,54.23
2023-05-01T01:48:11.145Z,54.43
2023-05-01T01:50:42.181Z,54.50
2023-05-01T01:53:13.337Z,54.34
2023-05-01T01:55:43.628Z,54.76
2023-05-01T01:58:13.762Z,54.95
2023-05-01T02:00:44.461Z,54.83
2023-05-01T02:03:14.648Z,54.91
2023-05-01T02:05:44.382Z,55.06
2023-05-01T02:08:14.585Z,55.05
2023-05-01T02:10:44.166Z,54.96
2023-05-01T02:13:13.786Z,55.39
2023-05-01T02:15:45.135Z,55.21
2023-05-01T02:18:14.720Z,55.18
2023-05-01T02:20:44.130Z,55.23
2023-05-01T02:23:13.314Z,55.33
2023-05-01T02:25:44.145Z,55.28
2023-05-01T02:28:13.747Z,55.35
2023-05-01T02:30:42.762Z,55.50
2023-05-01T02:33:11.882Z,55.80
2023-05-01T02:35:41.447Z,55.43
2023-05-01T02:38:10.716Z,55.33
2023-05-01T02:40:40.004Z,55.43
2023-05-01T02:43:09.995Z,55.45
2023-05-01T02:45:40.393Z,55.82
2023-05-01T02:48:10.967Z,55.97
2023-05-01T02:50:40.348Z,55.83
2023-05-01T02:53:09.567Z,55.90
2023-05-01T02:55:38.869Z,55.81
2023-05-01T02:58:07.993Z,55.92
2023-05-01T03:00:37.054Z,55.66
2023-05-01T03:03:06.140Z,55.78
2023-05-01T03:05:35.231Z,55.92
2023-05-01T03:08:04.526Z,55.84
2023-05-01T03:10:33.791Z,55.93
2023-05-01T03:13:02.839Z,56.11
2023-05-01T03:15:31.842Z,56.05
2023-05-01T03:18:00.906Z,56.03
2023-05-01T03:20:30.022Z,56.04
2023-05-01T03:22:59.209Z,56.05
2023-05-01T03:25:28.379Z,56.12
2023-05-01T03:27:57.508Z,56.15
2023-05-01T03:30:26.560Z,56.29
2023-05-01T03:32:55.689Z,56.41
2023-05-01T03:35:24.873Z,56.28
2023-05-01T03:37:53.950Z,56.31
2023-05-01T03:40:23.058Z,56.24
2023-05-01T03:42:52.180Z,56.10
2023-05-01T03:45:21.233Z,56.04
2023-05-01T03:47:50.422Z,55.82
2023-05-01T03:50:19.621Z,56.01
2023-05-01T03:52:48.679Z,56.14
2023-05-01T03:55:21.195Z,56.44
2023-05-01T03:57:50.282Z,56.55
2023-05-01T04:00:19.490Z,56.56
2023-05-01T04:02:48.757Z,56.48
2023-05-01T04:05:18.188Z,56.44
2023-05-01T04:07:47.316Z,56.56
2023-05-01T04:10:16.537Z,56.53
2023-05-01T04:12:45.558Z,56.65
2023-05-01T04:15:15.617Z,56.58
2023-05-01T04:17:45.089Z,56.58
2023-05-01T04:20:14.166Z,56.43
2023-05-01T04:22:43.193Z,54.76
2023-05-01T04:25:12.242Z,52.38
2023-05-01T04:27:41.334Z,49.98
2023-05-01T04:30:11.151Z,47.79
2023-05-01T04:32:40.310Z,46.40
2023-05-01T04:35:11.212Z,44.45
2023-05-01T04:37:40.277Z,42.62
2023-05-01T04:40:11.669Z,42.63
2023-05-01T04:42:40.993Z,40.72
2023-05-01T04:45:11.029Z,41.38
2023-05-01T04:47:40.172Z,40.86
2023-05-01T04:50:11.160Z,40.26
2023-05-01T04:52:40.208Z,39.08
2023-05-01T04:55:10.664Z,37.46
2023-05-01T04:57:39.773Z,39.49
2023-05-01T05:00:09.778Z,39.59
2023-05-01T05:02:38.948Z,39.96
2023-05-01T05:05:08.538Z,38.22
2023-05-01T05:07:37.612Z,39.29
2023-05-01T05:10:09.030Z,40.78
2023-05-01T05:12:38.190Z,40.86
2023-05-01T05:15:10.082Z,40.64
2023-05-01T05:17:39.201Z,41.46
2023-05-01T05:20:10.095Z,42.27
2023-05-01T05:22:39.181Z,42.17
2023-05-01T05:25:08.932Z,42.74
2023-05-01T05:27:38.032Z,42.21
2023-05-01T05:30:08.149Z,42.72
2023-05-01T05:32:37.460Z,42.88
2023-05-01T05:35:07.222Z,43.18
2023-05-01T05:37:36.271Z,43.71
2023-05-01T05:40:27.155Z,44.03
2023-05-01T05:42:56.188Z,43.95
2023-05-01T05:45:25.306Z,44.64
2023-05-01T05:47:54.464Z,44.92
2023-05-01T05:50:23.680Z,44.93
2023-05-01T05:52:52.737Z,45.20
2023-05-01T05:56:31.601Z,45.05
2023-05-01T05:58:11.567Z,44.83
2023-05-01T06:00:40.628Z,44.73
2023-05-01T06:03:09.785Z,44.70
2023-05-01T06:05:39.104Z,45.00
2023-05-01T06:08:08.253Z,45.08
2023-05-01T06:10:39.933Z,44.84
2023-05-01T06:13:33.535Z,45.18
2023-05-01T06:16:25.099Z,45.08
2023-05-01T06:18:54.226Z,45.07
2023-05-01T06:21:23.328Z,44.81
2023-05-01T06:23:52.838Z,44.95
2023-05-01T06:26:21.922Z,45.02
2023-05-01T06:28:51.167Z,44.61
2023-05-01T06:31:22.840Z,44.51
2023-05-01T06:33:52.001Z,44.62
2023-05-01T06:36:28.348Z,44.54
2023-05-01T06:38:57.459Z,43.86
2023-05-01T06:41:26.502Z,44.04
2023-05-01T06:43:57.531Z,44.22
2023-05-01T06:46:26.588Z,43.96
2023-05-01T06:48:55.664Z,44.35
2023-05-01T06:51:24.823Z,44.30
2023-05-01T06:54:14.389Z,44.30
2023-05-01T06:56:43.458Z,44.17
2023-05-01T06:59:12.508Z,44.10
2023-05-01T07:01:41.599Z,43.65
2023-05-01T07:04:10.709Z,44.37
2023-05-01T07:06:39.841Z,44.27
2023-05-01T07:09:08.956Z,43.95
2023-05-01T07:11:38.441Z,44.10
2023-05-01T07:14:07.481Z,44.13
2023-05-01T07:16:36.628Z,44.10
2023-05-01T07:19:05.753Z,44.00
2023-05-01T07:21:34.847Z,43.95
2023-05-01T07:24:04.121Z,43.89
2023-05-01T07:26:33.342Z,43.62
2023-05-01T07:29:02.388Z,43.74
2023-05-01T07:31:31.448Z,43.82
2023-05-01T07:34:02.636Z,43.64
2023-05-01T07:36:52.244Z,43.69
2023-05-01T07:39:21.521Z,43.58
2023-05-01T07:41:50.642Z,44.05
2023-05-01T07:44:19.654Z,43.97
2023-05-01T07:46:48.678Z,43.88
2023-05-01T07:49:17.760Z,43.59
2023-05-01T07:51:47.266Z,43.45
2023-05-01T07:54:16.379Z,42.96
2023-05-01T07:56:46.324Z,43.26
2023-05-01T07:59:16.945Z,43.51
2023-05-01T08:01:48.657Z,43.51
2023-05-01T08:04:17.836Z,43.53
2023-05-01T08:06:47.157Z,43.80
2023-05-01T08:09:16.283Z,43.37
2023-05-01T08:11:45.401Z,42.84
2023-05-01T08:14:14.408Z,43.29
2023-05-01T08:16:43.622Z,42.64
2023-05-01T08:19:12.891Z,42.14
2023-05-01T08:21:41.949Z,42.54
2023-05-01T08:24:13.261Z,42.59
2023-05-01T08:26:42.386Z,42.12
2023-05-01T08:29:11.520Z,41.31
2023-05-01T08:31:40.739Z,41.17
2023-05-01T08:34:09.840Z,41.68
2023-05-01T08:36:38.905Z,40.91
2023-05-01T08:39:07.957Z,40.87
2023-05-01T08:41:37.605Z,40.80
2023-05-01T08:44:08.027Z,40.16
2023-05-01T08:46:44.297Z,39.79
2023-05-01T08:49:15.061Z,39.20
2023-05-01T08:51:45.105Z,39.48
2023-05-01T08:54:14.714Z,39.86
2023-05-01T08:56:44.863Z,39.95
2023-05-01T08:59:14.569Z,39.03
2023-05-01T09:01:44.191Z,38.81
2023-05-01T09:04:13.470Z,39.12
2023-05-01T09:06:42.724Z,38.31
2023-05-01T09:09:11.908Z,37.82
2023-05-01T09:11:43.396Z,38.08
2023-05-01T09:14:12.489Z,37.97
2023-05-01T09:16:41.716Z,37.95
2023-05-01T09:19:13.520Z,37.77
2023-05-01T09:21:42.655Z,36.90
2023-05-01T09:24:11.704Z,36.58
2023-05-01T09:26:41.394Z,37.53
2023-05-01T09:29:10.493Z,37.64
2023-05-01T09:31:39.535Z,37.98
2023-05-01T09:34:09.385Z,37.76
2023-05-01T09:36:38.609Z,37.46
2023-05-01T09:39:07.648Z,37.64
2023-05-01T09:41:50.424Z,37.49
2023-05-01T09:44:19.448Z,37.69
2023-05-01T09:46:48.704Z,37.79
2023-05-01T09:49:17.784Z,37.53
2023-05-01T09:51:46.894Z,36.83
2023-05-01T09:54:19.364Z,37.14
2023-05-01T09:56:49.301Z,37.17
2023-05-01T09:59:19.462Z,37.37
2023-05-01T10:01:48.647Z,37.03
2023-05-01T10:04:17.870Z,36.70
2023-05-01T10:06:46.990Z,36.40
2023-05-01T10:09:26.783Z,36.94
2023-05-01T10:11:56.487Z,36.41
2023-05-01T10:14:25.554Z,36.32
2023-05-01T10:16:54.801Z,36.58
2023-05-01T10:19:24.010Z,35.37
2023-05-01T10:21:53.168Z,35.29
2023-05-01T10:24:22.210Z,35.71
2023-05-01T10:26:51.320Z,34.64
2023-05-01T10:29:20.900Z,33.92
2023-05-01T10:31:50.074Z,34.62
2023-05-01T10:34:20.907Z,34.55
2023-05-01T10:36:53.873Z,34.25
2023-05-01T10:39:32.288Z,35.07
2023-05-01T10:42:05.322Z,34.55
2023-05-01T10:44:34.461Z,34.77
2023-05-01T10:47:16.976Z,35.11
2023-05-01T10:50:04.942Z,34.86
2023-05-01T10:52:57.369Z,34.61
2023-05-01T10:55:39.076Z,34.52
2023-05-01T10:58:08.163Z,34.25
2023-05-01T11:00:37.352Z,34.05
2023-05-01T11:03:23.516Z,34.12
2023-05-01T11:06:08.570Z,33.81
2023-05-01T11:08:46.493Z,33.41
2023-05-01T11:11:32.098Z,33.65
2023-05-01T11:14:01.637Z,33.11
2023-05-01T11:16:44.403Z,33.39
2023-05-01T11:19:33.508Z,32.30
2023-05-01T11:22:11.590Z,32.71
2023-05-01T11:24:40.881Z,31.99
2023-05-01T11:27:12.980Z,33.29
2023-05-01T11:29:44.127Z,33.01
2023-05-01T11:32:18.434Z,32.67
2023-05-01T11:34:48.513Z,33.20
2023-05-01T11:37:38.462Z,33.21
2023-05-01T11:40:18.475Z,32.89
2023-05-01T11:42:47.595Z,32.67
2023-05-01T11:45:17.224Z,32.64
2023-05-01T11:47:47.169Z,32.89
2023-05-01T11:50:16.277Z,33.04
2023-05-01T11:52:48.566Z,32.06
2023-05-01T11:55:23.992Z,32.87
2023-05-01T11:57:53.567Z,32.09
2023-05-01T12:00:29.998Z,32.24
2023-05-01T12:03:01.049Z,31.11
2023-05-01T12:05:31.177Z,31.39
2023-05-01T12:08:16.711Z,31.39
2023-05-01T12:10:47.022Z,31.90
2023-05-01T12:13:16.825Z,31.39
2023-05-01T12:15:47.294Z,32.42
2023-05-01T12:18:16.946Z,32.57
2023-05-01T12:20:46.858Z,32.45
2023-05-01T12:23:16.384Z,32.12
2023-05-01T12:25:46.506Z,31.55
2023-05-01T12:28:16.343Z,31.17
2023-05-01T12:30:45.785Z,30.84
2023-05-01T12:33:16.037Z,30.33
2023-05-01T12:35:45.749Z,31.00
2023-05-01T12:38:15.495Z,30.94
2023-05-01T12:40:54.225Z,31.81
2023-05-01T12:43:30.495Z,31.97
2023-05-01T12:46:02.326Z,31.60
2023-05-01T12:48:31.682Z,31.44
2023-05-01T12:51:00.902Z,31.33
2023-05-01T12:53:30.095Z,31.59
2023-05-01T12:55:59.255Z,31.45
2023-05-01T12:58:36.393Z,31.03
2023-05-01T13:01:05.554Z,30.80
2023-05-01T13:03:36.290Z,31.06
2023-05-01T13:06:07.812Z,30.21
2023-05-01T13:08:38.373Z,29.55
2023-05-01T13:11:11.471Z,30.06
2023-05-01T13:13:40.752Z,30.52
2023-05-01T13:16:12.399Z,30.50
2023-05-01T13:18:45.781Z,31.05
2023-05-01T13:21:15.497Z,29.63
2023-05-01T13:23:51.951Z,29.86
2023-05-01T13:26:25.016Z,30.62
2023-05-01T13:28:54.226Z,30.45
2023-05-01T13:31:23.362Z,30.03
2023-05-01T13:33:53.348Z,30.51
2023-05-01T13:36:26.622Z,30.50
2023-05-01T13:38:56.986Z,30.24
2023-05-01T13:41:26.969Z,30.54
2023-05-01T13:43:56.509Z,30.31
2023-05-01T13:46:26.071Z,29.45
2023-05-01T13:48:55.262Z,30.07
2023-05-01T13:51:24.990Z,30.21
2023-05-01T13:53:55.905Z,30.26
2023-05-01T13:56:25.089Z,30.06
2023-05-01T13:58:54.189Z,30.35
2023-05-01T14:01:23.444Z,30.47
2023-05-01T14:03:53.906Z,30.50
2023-05-01T14:06:23.126Z,30.56
2023-05-01T14:08:52.378Z,30.25
2023-05-01T14:11:21.522Z,30.05
2023-05-01T14:13:50.840Z,29.69
2023-05-01T14:16:23.071Z,30.52
2023-05-01T14:18:53.068Z,30.60
2023-05-01T14:21:23.193Z,31.05
2023-05-01T14:23:52.757Z,30.07
2023-05-01T14:26:21.864Z,30.36
2023-05-01T14:28:51.330Z,30.09
2023-05-01T14:31:26.013Z,29.91
2023-05-01T14:33:56.099Z,29.90
2023-05-01T14:36:25.364Z,29.73
2023-05-01T14:38:55.705Z,29.59
2023-05-01T14:41:24.856Z,30.01
2023-05-01T14:43:56.781Z,30.08
2023-05-01T14:46:31.261Z,29.79
2023-05-01T14:49:01.761Z,29.20
2023-05-01T14:51:31.736Z,29.65
2023-05-01T14:54:01.092Z,30.03
2023-05-01T14:56:30.164Z,29.69
2023-05-01T14:58:59.208Z,30.07
2023-05-01T15:01:28.415Z,29.61
2023-05-01T15:03:57.646Z,29.81
2023-05-01T15:06:29.355Z,29.93
2023-05-01T15:08:58.628Z,29.13
2023-05-01T15:11:29.701Z,28.67
2023-05-01T15:13:58.777Z,28.81
2023-05-01T15:16:28.054Z,29.01
2023-05-01T15:18:57.446Z,29.42
2023-05-01T15:21:26.565Z,29.23
2023-05-01T15:23:55.572Z,28.92
2023-05-01T15:26:24.628Z,28.59
2023-05-01T15:28:56.677Z,28.77
2023-05-01T15:31:25.801Z,28.73
2023-05-01T15:33:54.837Z,28.81
2023-05-01T15:36:23.913Z,28.96
2023-05-01T15:38:53.539Z,28.97
2023-05-01T15:41:22.754Z,28.48
2023-05-01T15:43:51.847Z,28.85
2023-05-01T15:46:21.237Z,28.89
2023-05-01T15:48:50.382Z,29.03
2023-05-01T15:51:19.582Z,29.26
2023-05-01T15:53:48.591Z,28.97
2023-05-01T15:56:17.712Z,29.01
2023-05-01T15:58:46.754Z,29.55
2023-05-01T16:01:15.941Z,29.64
2023-05-01T16:03:45.799Z,29.81
2023-05-01T16:06:15.134Z,29.87
2023-05-01T16:08:44.253Z,29.92
2023-05-01T16:11:13.437Z,30.06
2023-05-01T16:13:42.729Z,29.90
2023-05-01T16:16:12.434Z,30.15
2023-05-01T16:18:41.797Z,29.90
2023-05-01T16:21:11.085Z,29.87
2023-05-01T16:23:40.433Z,29.86
2023-05-01T16:26:10.463Z,30.00
2023-05-01T16:28:39.940Z,30.06
2023-05-01T16:31:23.580Z,30.07
2023-05-01T16:33:55.480Z,29.94
2023-05-01T16:36:24.728Z,29.83
2023-05-01T16:38:53.834Z,29.98
2023-05-01T16:41:22.865Z,29.85
2023-05-01T16:43:51.949Z,30.06
2023-05-01T16:46:50.105Z,29.77
2023-05-01T16:49:19.228Z,30.10
2023-05-01T16:51:48.770Z,30.15
2023-05-01T16:54:17.906Z,29.96
2023-05-01T16:56:46.932Z,30.15
2023-05-01T16:59:16.161Z,30.42
2023-05-01T17:01:45.280Z,30.38
2023-05-01T17:04:14.538Z,30.24
2023-05-01T17:07:22.714Z,30.23
2023-05-01T17:09:51.769Z,30.42
2023-05-01T17:12:20.824Z,30.30
2023-05-01T17:14:50.102Z,30.69
2023-05-01T17:17:19.226Z,30.96
2023-05-01T17:19:48.353Z,30.80
2023-05-01T17:22:17.434Z,31.00
2023-05-01T17:24:46.466Z,31.20
2023-05-01T17:27:15.667Z,31.07
2023-05-01T17:29:44.796Z,31.32
2023-05-01T17:32:18.159Z,31.61
2023-05-01T17:34:58.999Z,31.63
2023-05-01T17:37:28.679Z,31.93
2023-05-01T17:39:58.198Z,31.84
2023-05-01T17:42:27.483Z,32.32
2023-05-01T17:44:56.622Z,32.27
2023-05-01T17:47:26.276Z,32.33
2023-05-01T17:49:55.547Z,32.50
2023-05-01T17:52:24.610Z,32.83
2023-05-01T17:54:53.705Z,33.04
2023-05-01T17:57:24.813Z,33.02
2023-05-01T17:59:53.860Z,33.34
2023-05-01T18:02:22.991Z,33.42
2023-05-01T18:04:52.249Z,33.59
2023-05-01T18:07:21.442Z,33.63
2023-05-01T18:09:50.488Z,33.78
2023-05-01T18:12:20.049Z,33.82
2023-05-01T18:14:49.114Z,33.92
2023-05-01T18:17:21.514Z,33.83
2023-05-01T18:19:52.640Z,33.99
2023-05-01T18:22:21.923Z,34.14
2023-05-01T18:24:50.971Z,34.24
2023-05-01T18:27:20.021Z,34.34
2023-05-01T18:29:49.139Z,34.46
2023-05-01T18:32:18.240Z,34.72
2023-05-01T18:34:47.300Z,34.86
2023-05-01T18:37:16.569Z,34.85
2023-05-01T18:40:08.548Z,34.85
2023-05-01T18:42:37.832Z,35.29
2023-05-01T18:45:08.057Z,36.04
2023-05-01T18:47:37.269Z,35.95
2023-05-01T18:50:07.562Z,36.04
2023-05-01T18:52:36.635Z,36.42
2023-05-01T18:55:08.135Z,37.00
2023-05-01T18:57:37.242Z,36.86
2023-05-01T19:00:07.630Z,37.11
2023-05-01T19:02:36.809Z,37.67
2023-05-01T19:05:08.381Z,37.76
2023-05-01T19:07:40.469Z,37.83
2023-05-01T19:10:09.898Z,37.96
2023-05-01T19:12:39.567Z,37.94
2023-05-01T19:15:10.109Z,37.88
2023-05-01T19:17:39.201Z,38.14
2023-05-01T19:20:29.518Z,38.21
2023-05-01T19:22:58.641Z,38.27
2023-05-01T19:25:27.729Z,38.67
2023-05-01T19:27:56.832Z,38.45
2023-05-01T19:30:25.960Z,38.19
2023-05-01T19:32:55.372Z,38.38
2023-05-01T19:35:24.510Z,38.23
2023-05-01T19:37:57.571Z,38.50
2023-05-01T19:40:28.311Z,38.44
2023-05-01T19:42:57.493Z,38.74
2023-05-01T19:45:26.617Z,38.70
2023-05-01T19:47:55.914Z,38.67
2023-05-01T19:50:25.124Z,38.83
2023-05-01T19:52:54.248Z,38.78
2023-05-01T19:55:23.477Z,38.88
2023-05-01T19:57:55.565Z,39.02
2023-05-01T20:00:24.742Z,40.01
2023-05-01T20:02:54.072Z,39.45
2023-05-01T20:05:23.491Z,40.09
2023-05-01T20:07:52.731Z,40.71
2023-05-01T20:10:42.195Z,41.15
2023-05-01T20:13:15.677Z,41.39
2023-05-01T20:15:45.183Z,41.51
2023-05-01T20:18:14.661Z,41.68
2023-05-01T20:20:43.883Z,41.89
2023-05-01T20:23:14.187Z,42.21
2023-05-01T20:25:43.504Z,42.42
2023-05-01T20:28:12.973Z,42.57
2023-05-01T20:30:43.136Z,42.63
2023-05-01T20:33:12.497Z,42.64
2023-05-01T20:35:41.730Z,42.65
2023-05-01T20:38:10.865Z,42.51
2023-05-01T20:40:42.633Z,42.58
2023-05-01T20:43:11.824Z,43.06
2023-05-01T20:45:40.865Z,43.38
2023-05-01T20:48:09.989Z,43.41
2023-05-01T20:50:39.166Z,43.23
2023-05-01T20:53:08.202Z,43.28
2023-05-01T20:55:37.284Z,43.01
2023-05-01T20:58:09.065Z,43.17
2023-05-01T21:00:38.084Z,43.38
2023-05-01T21:03:07.292Z,43.33
2023-05-01T21:05:36.390Z,43.28
2023-05-01T21:08:05.608Z,43.28
2023-05-01T21:10:34.864Z,43.27
2023-05-01T21:13:03.954Z,43.29
2023-05-01T21:15:33.000Z,42.88
2023-05-01T21:18:02.268Z,42.89
2023-05-01T21:20:32.224Z,42.52
2023-05-01T21:23:01.445Z,42.27
2023-05-01T21:25:30.775Z,42.23
2023-05-01T21:28:00.003Z,42.15
2023-05-01T21:30:30.407Z,42.12
2023-05-01T21:32:59.530Z,42.27
2023-05-01T21:35:49.338Z,42.62
2023-05-01T21:38:18.552Z,42.97
2023-05-01T21:40:47.622Z,43.00
2023-05-01T21:43:18.747Z,42.86
2023-05-01T21:45:47.929Z,42.86
2023-05-01T21:48:17.175Z,43.22
2023-05-01T21:50:48.280Z,43.38
2023-05-01T21:53:17.384Z,43.72
2023-05-01T21:55:46.563Z,44.15
2023-05-01T21:58:15.700Z,44.42
2023-05-01T22:00:45.545Z,44.56
2023-05-01T22:03:16.204Z,44.46
2023-05-01T22:05:45.347Z,44.58
2023-05-01T22:08:14.404Z,44.62
2023-05-01T22:10:43.468Z,44.63
2023-05-01T22:13:12.504Z,45.02
2023-05-01T22:15:41.519Z,44.69
2023-05-01T22:18:10.730Z,44.38
2023-05-01T22:20:39.790Z,44.79
2023-05-01T22:23:08.805Z,44.86
2023-05-01T22:25:40.658Z,44.11
2023-05-01T22:28:09.674Z,44.12
2023-05-01T22:30:38.722Z,43.93
2023-05-01T22:33:07.889Z,43.88
2023-05-01T22:35:36.995Z,44.20
2023-05-01T22:38:06.053Z,44.14
2023-05-01T22:40:35.166Z,43.72
2023-05-01T22:43:04.174Z,43.57
2023-05-01T22:45:33.228Z,43.64
2023-05-01T22:48:02.320Z,43.56
2023-05-01T22:50:33.156Z,43.54
2023-05-01T22:53:02.223Z,43.46
2023-05-01T22:55:31.341Z,43.48
2023-05-01T22:58:00.405Z,43.41
2023-05-01T23:00:29.578Z,43.31
2023-05-01T23:02:58.980Z,43.19
2023-05-01T23:05:28.115Z,43.33
2023-05-01T23:07:57.129Z,43.44
2023-05-01T23:10:26.891Z,43.15
2023-05-01T23:12:55.936Z,43.21
2023-05-01T23:15:25.657Z,43.10
2023-05-01T23:17:56.064Z,43.35
2023-05-01T23:20:25.110Z,43.23
2023-05-01T23:22:54.151Z,43.51
2023-05-01T23:25:24.676Z,43.85
2023-05-01T23:27:54.758Z,43.71
2023-05-01T23:30:24.012Z,44.00
2023-05-01T23:32:57.202Z,43.89
2023-05-01T23:35:26.265Z,44.01
2023-05-01T23:37:55.320Z,44.19
2023-05-01T23:40:24.402Z,44.47
2023-05-01T23:42:53.768Z,44.67
2023-05-01T23:45:22.840Z,44.62
2023-05-01T23:47:51.920Z,44.87
2023-05-01T23:50:21.050Z,45.09
2023-05-01T23:52:50.094Z,45.02
2023-05-01T23:55:20.462Z,45.23
2023-05-01T23:57:49.511Z,45.25
